Time;durP1;ratioP1;P1;durP2;ratioP2;P2;SDS_P1;SDS_P2;PMS_P1;PMS_P2;Temp;Humidity;BMP_temperature;BMP_pressure;BME280_temperature;BME280_humidity;BME280_pressure;Samples;Min_cycle;Max_cycle;Signal;HPM_P1;HPM_P2
2022/10/16 00:07:43;;;;;;;4.63;2.80;;;;;;;17.49;100.00;100531.81;20820571;27;20049;-76
2022/10/16 00:17:45;;;;;;;3.53;2.95;;;;;;;17.49;100.00;100537.19;20872075;27;20069;-77
2022/10/16 00:27:46;;;;;;;3.83;3.00;;;;;;;17.38;100.00;100515.81;20867129;27;20047;-75
2022/10/16 00:37:48;;;;;;;4.60;3.03;;;;;;;17.49;100.00;100537.19;20892006;27;20049;-76
2022/10/16 00:47:51;;;;;;;3.80;2.55;;;;;;;17.48;100.00;100540.88;20899166;27;20064;-75
2022/10/16 00:57:53;;;;;;;4.35;2.55;;;;;;;17.48;100.00;100557.03;20920975;27;20126;-76
2022/10/16 01:08:18;;;;;;;3.08;2.38;;;;;;;17.49;100.00;100544.44;20827705;27;20050;-76
2022/10/16 01:18:34;;;;;;;2.78;2.47;;;;;;;17.47;100.00;100541.88;20881111;27;20422;-75
2022/10/16 01:28:57;;;;;;;3.70;2.67;;;;;;;17.47;100.00;100560.69;20874011;27;20078;-75
2022/10/16 01:39:01;;;;;;;2.97;2.20;;;;;;;17.47;100.00;100544.56;20856495;27;20046;-76
2022/10/16 01:49:05;;;;;;;3.17;2.23;;;;;;;17.47;100.00;100544.56;20869621;27;20049;-76
2022/10/16 01:59:10;;;;;;;2.50;2.17;;;;;;;17.18;100.00;100494.28;20855219;27;20371;-75
2022/10/16 02:09:12;;;;;;;;;;;;;;;17.46;100.00;100529.41;20866607;27;20528;-75
2022/10/16 02:19:15;;;;;;;4.75;2.42;;;;;;;17.35;100.00;100513.41;20815816;27;20305;-75
2022/10/16 02:29:20;;;;;;;3.25;2.42;;;;;;;17.28;100.00;100502.34;20821740;27;20500;-75
2022/10/16 02:39:22;;;;;;;;;;;;;;;17.46;100.00;100540.16;20815301;27;20061;-76
2022/10/16 02:49:23;;;;;;;2.88;2.00;;;;;;;17.45;100.00;100540.28;20927257;27;19925;-76
2022/10/16 02:59:24;;;;;;;2.40;2.00;;;;;;;17.44;100.00;100544.84;20870934;27;20138;-76
2022/10/16 03:09:26;;;;;;;2.80;1.95;;;;;;;17.45;100.00;100568.06;20851606;27;20062;-76
2022/10/16 03:19:27;;;;;;;3.10;1.70;;;;;;;17.36;100.00;100564.38;20886121;27;20345;-76
2022/10/16 03:29:29;;;;;;;2.72;1.75;;;;;;;17.45;100.00;100577.97;20907961;27;20137;-76
2022/10/16 03:39:30;;;;;;;2.08;1.63;;;;;;;17.36;100.00;100579.69;20896700;27;20047;-76
2022/10/16 03:49:32;;;;;;;2.65;1.80;;;;;;;17.28;100.00;100558.84;20914878;27;20490;-80
2022/10/16 03:59:33;;;;;;;2.83;1.70;;;;;;;17.44;100.00;100577.13;20927832;27;20061;-75
2022/10/16 04:09:35;;;;;;;1.98;1.80;;;;;;;17.44;100.00;100576.28;20813337;27;20070;-76
2022/10/16 04:19:36;;;;;;;2.75;2.03;;;;;;;17.44;100.00;100605.88;20908474;27;20133;-75
2022/10/16 04:29:38;;;;;;;2.67;1.70;;;;;;;17.44;100.00;100612.13;20889422;27;20049;-75
2022/10/16 04:39:39;;;;;;;2.15;1.77;;;;;;;17.22;100.00;100597.09;20840383;27;20094;-76
2022/10/16 04:49:41;;;;;;;2.63;1.40;;;;;;;17.18;100.00;100595.66;20871241;27;20042;-76
2022/10/16 04:59:42;;;;;;;2.30;1.70;;;;;;;17.37;100.00;100638.72;20933129;27;20047;-76
2022/10/16 05:09:44;;;;;;;2.10;1.60;;;;;;;17.16;100.00;100622.69;20870874;27;20041;-75
2022/10/16 05:19:45;;;;;;;2.22;1.80;;;;;;;17.32;100.00;100649.06;20829355;27;20447;-76
2022/10/16 05:29:47;;;;;;;1.40;1.30;;;;;;;17.43;100.00;100680.38;20762510;27;20451;-76
2022/10/16 05:39:49;;;;;;;1.80;1.50;;;;;;;17.42;100.00;100686.75;20801071;27;20425;-76
2022/10/16 05:49:50;;;;;;;2.40;1.27;;;;;;;17.42;100.00;100702.91;20785983;27;20095;-77
2022/10/16 05:59:52;;;;;;;3.13;1.60;;;;;;;17.42;100.00;100702.91;20778203;27;20057;-77
2022/10/16 06:09:53;;;;;;;4.53;1.80;;;;;;;17.50;100.00;100711.13;20712128;27;20367;-76
2022/10/16 06:19:55;;;;;;;2.33;1.70;;;;;;;17.55;100.00;100718.81;20845632;27;20053;-76
2022/10/16 06:29:57;;;;;;;2.13;1.50;;;;;;;17.60;100.00;100745.28;20758505;27;20053;-75
2022/10/16 06:39:59;;;;;;;4.03;1.70;;;;;;;17.63;100.00;100758.47;20765991;27;20098;-76
2022/10/16 06:50:01;;;;;;;2.42;1.40;;;;;;;17.66;100.00;100766.28;20778287;27;20071;-76
2022/10/16 07:00:03;;;;;;;1.85;1.45;;;;;;;17.67;100.00;100776.91;20841567;27;20045;-75
2022/10/16 07:10:04;;;;;;;2.50;1.48;;;;;;;17.69;100.00;100798.34;20771417;27;20132;-75
2022/10/16 07:20:06;;;;;;;1.50;1.23;;;;;;;17.63;100.00;100801.53;20750564;27;20141;-76
2022/10/16 07:30:08;;;;;;;2.35;1.90;;;;;;;17.70;100.00;100835.03;20835973;27;20487;-76
2022/10/16 07:40:10;;;;;;;1.85;1.25;;;;;;;17.71;100.00;100836.75;20802155;27;20064;-76
2022/10/16 07:50:11;;;;;;;2.30;1.30;;;;;;;17.72;100.00;100862.66;20736030;27;20059;-76
2022/10/16 08:00:13;;;;;;;2.13;1.60;;;;;;;17.73;100.00;100860.81;20748599;27;20119;-76
2022/10/16 08:10:19;;;;;;;1.67;1.10;;;;;;;17.72;100.00;100889.59;20736837;27;20050;-76
2022/10/16 08:20:21;;;;;;;1.92;1.52;;;;;;;17.56;100.00;100873.94;20745534;27;20137;-76
2022/10/16 08:30:23;;;;;;;1.65;1.20;;;;;;;17.75;100.00;100908.16;20748726;27;20435;-76
2022/10/16 08:40:32;;;;;;;1.25;1.10;;;;;;;17.77;100.00;100913.41;20745744;27;20372;-76
2022/10/16 08:50:37;;;;;;;1.67;1.27;;;;;;;17.52;100.00;100897.56;20735034;27;20057;-75
2022/10/16 09:00:39;;;;;;;1.83;1.10;;;;;;;17.50;100.00;100913.00;20803242;27;20083;-76
2022/10/16 09:11:07;;;;;;;1.95;1.25;;;;;;;17.81;100.00;100976.78;21046647;27;20138;-76
2022/10/16 09:21:22;;;;;;;1.40;1.30;;;;;;;17.81;100.00;100977.66;20926769;28;20045;-76
2022/10/16 09:31:24;;;;;;;1.50;1.10;;;;;;;17.82;100.00;100995.50;20930706;28;20990;-77
2022/10/16 09:41:27;;;;;;;1.20;0.90;;;;;;;17.83;100.00;101009.81;20924633;28;20048;-77
2022/10/16 09:51:34;;;;;;;1.40;1.00;;;;;;;17.82;100.00;101013.50;20938316;28;20065;-76
2022/10/16 10:01:40;;;;;;;1.55;0.90;;;;;;;17.77;100.00;101027.38;20940546;28;20063;-76
2022/10/16 10:11:48;;;;;;;1.90;0.98;;;;;;;17.70;100.00;101045.03;20939406;28;20504;-76
2022/10/16 10:21:51;;;;;;;1.70;0.80;;;;;;;17.73;100.00;101055.56;20889821;28;20110;-76
2022/10/16 10:32:15;;;;;;;1.27;0.90;;;;;;;17.71;100.00;101062.03;20887583;28;20143;-76
2022/10/16 10:42:34;;;;;;;1.88;0.95;;;;;;;17.69;100.00;101094.50;20902259;28;20057;-76
2022/10/16 10:53:00;;;;;;;1.77;1.02;;;;;;;17.69;100.00;101097.19;20896519;28;20076;-76
2022/10/16 11:03:26;;;;;;;1.50;0.88;;;;;;;17.69;100.00;101113.34;20882355;28;20202;-77
2022/10/16 11:13:52;;;;;;;0.98;0.88;;;;;;;17.66;100.00;101121.66;20883478;28;20156;-76
2022/10/16 11:24:06;;;;;;;1.13;0.70;;;;;;;17.67;100.00;101128.75;20879081;28;20045;-78
2022/10/16 11:34:29;;;;;;;0.80;0.80;;;;;;;17.67;100.00;101136.81;20880936;28;20068;-76
2022/10/16 11:44:43;;;;;;;1.48;0.90;;;;;;;17.66;100.00;101140.50;20863110;28;20481;-76
2022/10/16 11:55:14;;;;;;;1.65;0.90;;;;;;;17.66;100.00;101151.25;20818950;28;20053;-76
2022/10/16 12:05:21;;;;;;;1.58;1.20;;;;;;;17.67;100.00;101163.75;20854671;28;20056;-76
2022/10/16 12:15:28;;;;;;;0.90;0.65;;;;;;;17.66;100.00;101167.41;20851946;28;20203;-76
2022/10/16 12:25:55;;;;;;;1.00;0.65;;;;;;;17.58;100.00;101172.59;20853420;28;20126;-76
2022/10/16 12:35:58;;;;;;;0.75;0.65;;;;;;;17.66;100.00;101202.41;20865401;28;20045;-76
2022/10/16 12:46:24;;;;;;;0.57;0.57;;;;;;;17.66;100.00;101207.81;20855003;28;20053;-76
2022/10/16 12:57:01;;;;;;;0.70;0.55;;;;;;;17.64;100.00;101229.50;20853756;28;20053;-76
2022/10/16 13:07:18;;;;;;;0.90;0.60;;;;;;;17.54;100.00;101229.38;20883630;28;20467;-76
2022/10/16 13:17:37;;;;;;;1.50;0.82;;;;;;;17.46;100.00;101220.25;20810753;28;20469;-76
2022/10/16 13:27:55;;;;;;;0.90;0.60;;;;;;;17.64;100.00;101255.53;20851950;28;20045;-76
2022/10/16 13:38:27;;;;;;;0.60;0.60;;;;;;;17.64;100.00;101258.25;20860529;28;20060;-76
2022/10/16 13:48:29;;;;;;;1.45;0.80;;;;;;;17.65;100.00;101268.03;20854632;28;20540;-76
2022/10/16 13:58:31;;;;;;;0.70;0.50;;;;;;;17.24;100.00;101217.47;20887747;28;20079;-76
2022/10/16 14:08:32;;;;;;;0.70;0.50;;;;;;;17.62;100.00;101274.53;20885522;28;20056;-76
2022/10/16 14:18:34;;;;;;;0.70;0.68;;;;;;;17.56;100.00;101282.25;20891839;28;20052;-76
2022/10/16 14:28:37;;;;;;;0.88;0.57;;;;;;;17.63;100.00;101303.16;20895511;28;20136;-76
2022/10/16 14:38:41;;;;;;;0.73;0.65;;;;;;;17.63;100.00;101327.41;20901567;28;20055;-77
2022/10/16 14:48:44;;;;;;;0.50;0.50;;;;;;;17.63;100.00;101332.78;20867167;28;20044;-76
2022/10/16 14:58:46;;;;;;;1.52;0.80;;;;;;;17.63;100.00;101340.88;20830756;28;20056;-76
2022/10/16 15:08:47;;;;;;;0.90;0.60;;;;;;;17.63;100.00;101329.22;20852172;28;20525;-76
2022/10/16 15:18:49;;;;;;;1.20;0.68;;;;;;;17.35;100.00;101283.00;20855999;28;20060;-76
2022/10/16 15:28:50;;;;;;;1.10;0.90;;;;;;;17.30;100.00;101277.16;20865233;28;20057;-76
2022/10/16 15:38:53;;;;;;;1.13;0.57;;;;;;;17.39;100.00;101311.38;20852537;28;20131;-77
2022/10/16 15:48:59;;;;;;;1.50;0.73;;;;;;;17.42;100.00;101311.13;20856672;28;20045;-76
2022/10/16 15:59:01;;;;;;;1.00;0.60;;;;;;;17.60;100.00;101351.88;20840113;28;20107;-76
2022/10/16 16:09:03;;;;;;;0.95;0.70;;;;;;;17.20;100.00;101287.78;20859124;28;20060;-76
2022/10/16 16:19:05;;;;;;;1.15;0.65;;;;;;;17.51;100.00;101349.94;20861993;28;20049;-76
2022/10/16 16:29:13;;;;;;;1.17;0.80;;;;;;;17.59;100.00;101360.94;20842312;28;20675;-77
2022/10/16 16:39:14;;;;;;;0.73;0.68;;;;;;;17.52;100.00;101365.94;20829897;28;20056;-77
2022/10/16 16:49:16;;;;;;;1.95;0.90;;;;;;;17.59;100.00;101398.63;20868833;28;20057;-76
2022/10/16 16:59:19;;;;;;;1.60;0.95;;;;;;;17.58;100.00;101402.31;20832533;28;20053;-76
2022/10/16 17:09:21;;;;;;;3.10;1.00;;;;;;;17.59;100.00;101413.91;20837597;28;20072;-76
2022/10/16 17:19:23;;;;;;;1.83;1.00;;;;;;;17.58;100.00;101428.34;20849071;28;20059;-76
2022/10/16 17:29:24;;;;;;;2.47;1.15;;;;;;;17.58;100.00;101433.72;20885265;28;20041;-77
2022/10/16 17:39:26;;;;;;;2.90;1.40;;;;;;;17.58;100.00;101455.28;20892441;28;20051;-77
2022/10/16 17:49:27;;;;;;;2.67;1.48;;;;;;;17.38;100.00;101409.25;20890016;28;20464;-77
2022/10/16 17:59:29;;;;;;;2.60;1.52;;;;;;;17.17;100.00;101409.94;20889976;28;20140;-76
2022/10/16 18:09:30;;;;;;;3.88;1.45;;;;;;;17.56;100.00;101489.53;20888921;28;20054;-77
2022/10/16 18:19:32;;;;;;;2.90;1.05;;;;;;;17.55;100.00;101472.53;20887182;28;20053;-78
2022/10/16 18:29:33;;;;;;;3.13;1.50;;;;;;;17.36;100.00;101451.59;20887711;28;20111;-76
2022/10/16 18:39:35;;;;;;;3.83;1.38;;;;;;;17.54;100.00;101486.97;20887429;28;20091;-76
2022/10/16 18:49:36;;;;;;;1.73;1.15;;;;;;;17.29;100.00;101440.44;20887444;28;20580;-76
2022/10/16 18:59:38;;;;;;;3.45;1.38;;;;;;;17.53;100.00;101486.09;20885940;28;20048;-76
2022/10/16 19:09:40;;;;;;;2.50;1.10;;;;;;;17.34;100.00;101469.69;20866854;28;20069;-76
2022/10/16 19:19:41;;;;;;;3.33;1.52;;;;;;;17.52;100.00;101508.63;20882776;28;20045;-77
2022/10/16 19:29:43;;;;;;;2.78;1.52;;;;;;;17.43;100.00;101495.00;20882129;28;20524;-76
2022/10/16 19:39:45;;;;;;;2.88;1.15;;;;;;;17.51;100.00;101520.38;20882914;28;20490;-76
2022/10/16 19:49:48;;;;;;;2.78;1.10;;;;;;;17.34;100.00;101467.00;20863613;28;20083;-77
2022/10/16 19:59:53;;;;;;;2.58;1.30;;;;;;;17.50;100.00;101525.88;20879649;28;20119;-77
2022/10/16 20:09:54;;;;;;;2.42;1.30;;;;;;;17.30;100.00;101495.13;20879882;28;20059;-77
2022/10/16 20:19:56;;;;;;;3.22;1.52;;;;;;;17.47;100.00;101513.50;20879471;28;20310;-76
2022/10/16 20:29:57;;;;;;;2.55;1.20;;;;;;;17.51;100.00;101527.59;20879790;28;20443;-76
2022/10/16 20:39:58;;;;;;;2.40;1.23;;;;;;;17.49;100.00;101522.31;20878055;28;20516;-77
2022/10/16 20:50:00;;;;;;;2.13;1.20;;;;;;;17.48;100.00;101536.75;20875970;28;20060;-76
2022/10/16 21:00:03;;;;;;;2.53;1.30;;;;;;;17.49;100.00;101527.72;20859885;28;20102;-77
2022/10/16 21:10:05;;;;;;;2.47;1.20;;;;;;;17.49;100.00;101519.63;20876277;28;20053;-77
2022/10/16 21:20:07;;;;;;;3.17;1.30;;;;;;;17.47;100.00;101494.66;20874624;28;20048;-77
2022/10/16 21:30:09;;;;;;;2.15;1.38;;;;;;;17.47;100.00;101486.59;20874194;28;20080;-77
2022/10/16 21:40:11;;;;;;;4.22;1.65;;;;;;;17.47;100.00;101497.34;20874019;28;20460;-79
2022/10/16 21:50:12;;;;;;;2.40;1.30;;;;;;;17.18;100.00;101440.41;20857321;28;20246;-76
2022/10/16 22:00:14;;;;;;;2.78;1.30;;;;;;;17.46;100.00;101495.63;20873456;28;20068;-76
2022/10/16 22:10:15;;;;;;;1.65;1.10;;;;;;;17.47;100.00;101494.66;20858779;28;20045;-76
2022/10/16 22:20:17;;;;;;;2.53;1.38;;;;;;;17.47;100.00;101474.97;20887081;28;20585;-77
2022/10/16 22:30:18;;;;;;;2.25;1.27;;;;;;;17.46;100.00;101452.56;20870043;28;20045;-76
2022/10/16 22:40:20;;;;;;;1.55;1.00;;;;;;;17.46;100.00;101444.50;20887701;28;20053;-76
2022/10/16 22:50:22;;;;;;;1.88;1.20;;;;;;;17.45;100.00;101407.78;20886853;28;20124;-76
2022/10/16 23:00:24;;;;;;;2.17;1.15;;;;;;;17.45;100.00;101397.03;20885812;28;20056;-76
2022/10/16 23:10:28;;;;;;;2.80;1.20;;;;;;;17.45;100.00;101418.56;20885676;28;20040;-76
2022/10/16 23:20:30;;;;;;;2.63;1.10;;;;;;;17.44;100.00;101422.22;20884212;28;20405;-76
2022/10/16 23:30:31;;;;;;;2.45;1.30;;;;;;;17.16;100.00;101375.94;20883444;28;20080;-77
2022/10/16 23:40:32;;;;;;;1.83;1.08;;;;;;;17.44;100.00;101422.22;20883364;28;20053;-77
2022/10/16 23:50:34;;;;;;;1.50;1.17;;;;;;;17.44;100.00;101438.38;20880588;28;20586;-76
